createdAt,value
2016-07-08T00:00:06.423Z,1006.03
2016-07-08T00:15:01.831Z,1005.87
2016-07-08T00:30:06.465Z,1005.67
2016-07-08T00:45:06.483Z,1005.64
2016-07-08T01:00:06.466Z,1005.64
2016-07-08T01:15:08.173Z,1005.58
2016-07-08T01:45:06.490Z,1005.21
2016-07-08T02:00:08.052Z,1005.05
2016-07-08T02:15:01.848Z,1005.07
2016-07-08T02:30:01.853Z,1005
2016-07-08T02:45:06.496Z,1004.87
2016-07-08T03:00:08.083Z,1004.72
2016-07-08T03:15:06.795Z,1004.57
2016-07-08T03:30:06.909Z,1004.53
2016-07-08T03:45:14.736Z,1004.56
2016-07-08T04:00:06.463Z,1004.46
2016-07-08T04:15:07.294Z,1004.24
2016-07-08T04:30:01.876Z,1004.17
2016-07-08T04:45:06.513Z,1004.19
2016-07-08T05:00:08.255Z,1004.04
2016-07-08T05:15:03.986Z,1004.06
2016-07-08T05:30:10.605Z,1004.09
2016-07-08T05:45:06.483Z,1003.81
2016-07-08T06:00:01.887Z,1003.55
2016-07-08T06:15:06.533Z,1003.48
2016-07-08T06:30:03.900Z,1003.23
2016-07-08T06:45:01.906Z,1003.14
2016-07-08T07:00:08.604Z,1003.02
2016-07-08T07:30:08.302Z,1003.04
2016-07-08T07:45:08.142Z,1003
2016-07-08T08:00:06.506Z,1003
2016-07-08T08:15:06.183Z,1002.9
2016-07-08T08:30:01.944Z,1003
2016-07-08T08:45:02.011Z,1002.93
2016-07-08T09:00:01.941Z,1002.76
2016-07-08T09:15:01.943Z,1002.62
2016-07-08T09:30:08.164Z,1002.53
2016-07-08T09:45:06.609Z,1002.57
2016-07-08T10:00:01.977Z,1002.43
2016-07-08T10:15:06.559Z,1002.43
2016-07-08T10:30:12.874Z,1002.13
2016-07-08T10:45:08.209Z,1002.22
2016-07-08T11:00:08.180Z,1001.98
2016-07-08T11:15:03.988Z,1001.64
2016-07-08T11:30:01.991Z,1001.78
2016-07-08T11:45:06.589Z,1002.02
2016-07-08T12:00:12.939Z,1001.87
2016-07-08T12:15:08.219Z,1001.79
2016-07-08T12:30:13.105Z,1001.61
2016-07-08T12:45:06.647Z,1001.41
2016-07-08T13:00:02.023Z,1000.99
2016-07-08T13:15:22.991Z,1001.05
2016-07-08T13:30:08.172Z,1000.89
2016-07-08T14:00:08.408Z,1000.89
2016-07-08T14:15:08.358Z,1000.7
2016-07-08T14:30:06.698Z,1000.95
2016-07-08T14:45:09.038Z,1001.26
2016-07-08T15:00:02.066Z,1001.66
2016-07-08T15:15:06.747Z,1001.83
2016-07-08T15:30:07.067Z,1001.75
2016-07-08T15:45:06.653Z,1001.56
2016-07-08T16:00:06.667Z,1001.56
2016-07-08T16:15:04.092Z,1001.55
2016-07-08T16:30:06.727Z,1001.61
2016-07-08T16:45:14.897Z,1001.55
2016-07-08T17:00:22.849Z,1001.48
2016-07-08T17:15:06.701Z,1001.53
2016-07-08T17:30:07.074Z,1001.94
2016-07-08T17:45:04.122Z,1001.99
2016-07-08T18:00:02.189Z,1002.22
2016-07-08T18:15:02.144Z,1002.34
2016-07-08T18:30:06.741Z,1002.48
2016-07-08T18:45:06.736Z,1002.88
2016-07-08T19:00:08.414Z,1002.89
2016-07-08T19:15:06.769Z,1002.93
2016-07-08T19:30:02.154Z,1002.84
2016-07-08T19:45:02.172Z,1003.06
2016-07-08T20:00:02.168Z,1003.35
2016-07-08T20:15:06.802Z,1003.31
2016-07-08T20:30:08.473Z,1003.4
2016-07-08T20:45:15.182Z,1003.39
2016-07-08T21:00:07.111Z,1003.48
2016-07-08T21:15:15.148Z,1003.67
2016-07-08T21:30:02.182Z,1003.6
2016-07-08T21:45:06.770Z,1003.74
2016-07-08T22:00:06.822Z,1003.8
2016-07-08T22:15:06.783Z,1003.86
2016-07-08T22:30:08.501Z,1003.78
2016-07-08T22:45:02.205Z,1003.77
2016-07-08T23:00:02.214Z,1003.88
2016-07-08T23:15:04.313Z,1003.87
2016-07-08T23:30:08.963Z,1003.99
2016-07-08T23:45:04.312Z,1003.91
